Flight Track Log - Related Links

Times and Time Zones

All times are in EDT time to prevent confusion due to time zone crossing. See the CPT8691 flight status page for this flight to view local times or setup timezone preferences in your user account.

Time Position Orientation Groundspeed Altitude Reporting Facility
EDT Latitude Longitude Course Direction KTS MPH feet Rate Location/Type
Wed 12:59:15 PM 21.3167 -157.8833 155° Southeast 110 127 600  Level Honolulu Center
Wed 01:00:15 PM 21.2833 -157.8667 155° Southeast 120 138 1,200 694 Climbing Honolulu Center
Wed 01:01:16 PM 21.2667 -157.8500 137° Southeast 120 138 2,000 744 Climbing Honolulu Center
Wed 01:02:16 PM 21.2500 -157.8167 118° Southeast 120 138 2,700 700 Climbing Honolulu Center
Wed 01:03:16 PM 21.2500 -157.7833 90° East 110 127 3,400 700 Climbing Honolulu Center
Wed 01:04:16 PM 21.2333 -157.7500 118° Southeast 120 138 4,100 700 Climbing Honolulu Center
Wed 01:05:16 PM 21.2333 -157.7167 90° East 120 138 4,800 600 Climbing Honolulu Center
Wed 01:06:16 PM 21.2333 -157.6833 90° East 120 138 5,300 600 Climbing Honolulu Center
Wed 01:07:16 PM 21.2167 -157.6500 118° Southeast 130 150 6,000 650 Climbing Honolulu Center
Wed 01:08:16 PM 21.2167 -157.6000 90° East 130 150 6,600 500 Climbing Honolulu Center
Wed 01:09:16 PM 21.2000 -157.5667 118° Southeast 140 161 7,000 198 Climbing Honolulu Center
Wed 01:10:17 PM 21.2000 -157.5167 90° East 150 173 7,000  Level Honolulu Center
Wed 01:11:17 PM 21.1833 -157.4833 118° Southeast 150 173 7,000  Level Honolulu Center
Wed 01:12:17 PM 21.1833 -157.4333 90° East 160 184 7,000  Level Honolulu Center
Wed 01:13:17 PM 21.1667 -157.3833 110° East 160 184 7,000  Level Honolulu Center
Wed 01:14:17 PM 21.1667 -157.3333 90° East 160 184 7,000  Level Honolulu Center
Wed 01:16:17 PM 21.1500 -157.2500 102° East 150 173 7,000  Level Honolulu Center
Wed 01:17:17 PM 21.1333 -157.2000 110° East 160 184 7,000  Level Honolulu Center
Wed 01:18:17 PM 21.1333 -157.1500 90° East 160 184 7,000 -99 Level Honolulu Center
Wed 01:19:18 PM 21.1167 -157.1167 118° Southeast 150 173 6,800 -298 Descending Honolulu Center
Wed 01:20:18 PM 21.1000 -157.0667 110° East 160 184 6,400 -400 Descending Honolulu Center
Wed 01:21:18 PM 21.0833 -157.0333 118° Southeast 170 196 6,000 -400 Descending Honolulu Center
Wed 01:22:18 PM 21.0667 -156.9833 110° East 170 196 5,600 -450 Descending Honolulu Center
Wed 01:23:18 PM 21.0500 -156.9333 110° East 170 196 5,100 -450 Descending Honolulu Center
Wed 01:24:18 PM 21.0333 -156.8833 110° East 170 196 4,700 -400 Descending Honolulu Center
Wed 01:25:18 PM 21.0000 -156.8500 137° Southeast 170 196 4,300 -446 Descending Honolulu Center
Wed 01:26:19 PM 20.9833 -156.8000 110° East 160 184 3,800 -650 Descending Honolulu Center
Wed 01:27:18 PM 20.9500 -156.7667 137° Southeast 170 196 3,000 -857 Descending Honolulu Center
Wed 01:28:18 PM 20.9333 -156.7333 118° Southeast 150 173 2,100 -793 Descending Honolulu Center
Wed 01:29:19 PM 20.9167 -156.6833 110° East 150 173 1,400 -689 Descending Honolulu Center

Login

Don't have an account? Register now (free) for customized features, flight alerts, and more!